sensor_id;sensor_type;location;lat;lon;timestamp;pressure;altitude;pressure_sealevel;temperature;humidity
44734;BME280;30462;52.446;-1.930;2022-12-05T00:00:19;100756.8477;;;;
44734;BME280;30462;52.446;-1.930;2022-12-05T00:01:20;100754.8789;;;;
44734;BME280;30462;52.446;-1.930;2022-12-05T00:02:18;100754.5117;;;;
44734;BME280;30462;52.446;-1.930;2022-12-05T00:03:18;100757.8555;;;;
44734;BME280;30462;52.446;-1.930;2022-12-05T00:04:18;100757.1172;;;;
44734;BME280;30462;52.446;-1.930;2022-12-05T00:05:18;100754.5234;;;;
44734;BME280;30462;52.446;-1.930;2022-12-05T00:06:18;100758.5273;;;;
44734;BME280;30462;52.446;-1.930;2022-12-05T00:07:18;100759.0586;;;;
44734;BME280;30462;52.446;-1.930;2022-12-05T00:08:18;100760.7656;;;;
44734;BME280;30462;52.446;-1.930;2022-12-05T00:09:18;100763.7344;;;;
44734;BME280;30462;52.446;-1.930;2022-12-05T00:10:18;100759.8281;;;;
44734;BME280;30462;52.446;-1.930;2022-12-05T00:11:19;100760.5273;;;;
44734;BME280;30462;52.446;-1.930;2022-12-05T00:12:18;100759.2617;;;;
44734;BME280;30462;52.446;-1.930;2022-12-05T00:13:18;100758.2344;;;;
44734;BME280;30462;52.446;-1.930;2022-12-05T00:14:18;100761.3633;;;;
44734;BME280;30462;52.446;-1.930;2022-12-05T00:15:18;100763.3438;;;;
44734;BME280;30462;52.446;-1.930;2022-12-05T00:16:19;100760.9531;;;;
44734;BME280;30462;52.446;-1.930;2022-12-05T00:17:18;100760.1367;;;;
44734;BME280;30462;52.446;-1.930;2022-12-05T00:18:18;100763.5469;;;;
44734;BME280;30462;52.446;-1.930;2022-12-05T00:19:18;100765.8672;;;;
44734;BME280;30462;52.446;-1.930;2022-12-05T00:20:18;100763.6602;;;;
44734;BME280;30462;52.446;-1.930;2022-12-05T00:21:19;100761.5234;;;;
44734;BME280;30462;52.446;-1.930;2022-12-05T00:22:18;100766.0391;;;;
44734;BME280;30462;52.446;-1.930;2022-12-05T00:23:18;100762.4805;;;;
44734;BME280;30462;52.446;-1.930;2022-12-05T00:24:18;100765.9766;;;;
44734;BME280;30462;52.446;-1.930;2022-12-05T00:25:18;100763.5273;;;;
44734;BME280;30462;52.446;-1.930;2022-12-05T00:26:18;100763.0547;;;;
44734;BME280;30462;52.446;-1.930;2022-12-05T00:27:18;100765.5391;;;;
44734;BME280;30462;52.446;-1.930;2022-12-05T00:28:18;100762.0039;;;;
44734;BME280;30462;52.446;-1.930;2022-12-05T00:29:18;100761.7109;;;;
44734;BME280;30462;52.446;-1.930;2022-12-05T00:30:19;100762.1758;;;;
44734;BME280;30462;52.446;-1.930;2022-12-05T00:31:19;100760.8555;;;;
44734;BME280;30462;52.446;-1.930;2022-12-05T00:32:18;100761.9258;;;;
44734;BME280;30462;52.446;-1.930;2022-12-05T00:33:18;100763.4414;;;;
44734;BME280;30462;52.446;-1.930;2022-12-05T00:34:17;100765.5508;;;;
44734;BME280;30462;52.446;-1.930;2022-12-05T00:35:18;100764.9375;;;;
44734;BME280;30462;52.446;-1.930;2022-12-05T00:36:19;100768.1211;;;;
44734;BME280;30462;52.446;-1.930;2022-12-05T00:37:18;100764.9805;;;;
44734;BME280;30462;52.446;-1.930;2022-12-05T00:38:18;100768.4688;;;;
44734;BME280;30462;52.446;-1.930;2022-12-05T00:39:18;100768.6289;;;;
44734;BME280;30462;52.446;-1.930;2022-12-05T00:40:17;100768.0781;;;;
44734;BME280;30462;52.446;-1.930;2022-12-05T00:41:19;100770.5;;;;
44734;BME280;30462;52.446;-1.930;2022-12-05T00:42:18;100768.4453;;;;
44734;BME280;30462;52.446;-1.930;2022-12-05T00:43:18;100770.8711;;;;
44734;BME280;30462;52.446;-1.930;2022-12-05T00:44:18;100768.7266;;;;
44734;BME280;30462;52.446;-1.930;2022-12-05T00:45:18;100769.625;;;;
44734;BME280;30462;52.446;-1.930;2022-12-05T00:46:18;100768.0742;;;;
44734;BME280;30462;52.446;-1.930;2022-12-05T00:47:18;100769.1992;;;;
44734;BME280;30462;52.446;-1.930;2022-12-05T00:48:18;100772.168;;;;
44734;BME280;30462;52.446;-1.930;2022-12-05T00:49:18;100771.0859;;;;
44734;BME280;30462;52.446;-1.930;2022-12-05T00:50:18;100770.457;;;;
44734;BME280;30462;52.446;-1.930;2022-12-05T00:51:19;100769.9375;;;;
44734;BME280;30462;52.446;-1.930;2022-12-05T00:52:18;100766.7227;;;;
44734;BME280;30462;52.446;-1.930;2022-12-05T00:53:18;100769.5391;;;;
44734;BME280;30462;52.446;-1.930;2022-12-05T00:54:18;100771.1719;;;;
44734;BME280;30462;52.446;-1.930;2022-12-05T00:55:18;100767.4727;;;;
44734;BME280;30462;52.446;-1.930;2022-12-05T00:56:19;100768.3008;;;;
44734;BME280;30462;52.446;-1.930;2022-12-05T00:57:18;100771.5508;;;;
44734;BME280;30462;52.446;-1.930;2022-12-05T00:58:18;100769.2227;;;;
44734;BME280;30462;52.446;-1.930;2022-12-05T00:59:18;100768.9375;;;;
44734;BME280;30462;52.446;-1.930;2022-12-05T01:00:18;100768.3672;;;;
44734;BME280;30462;52.446;-1.930;2022-12-05T01:01:19;100767.8789;;;;
44734;BME280;30462;52.446;-1.930;2022-12-05T01:02:18;100766.8516;;;;
44734;BME280;30462;52.446;-1.930;2022-12-05T01:03:18;100769.3828;;;;
44734;BME280;30462;52.446;-1.930;2022-12-05T01:04:19;100769.4492;;;;
44734;BME280;30462;52.446;-1.930;2022-12-05T01:05:18;100770.457;;;;
44734;BME280;30462;52.446;-1.930;2022-12-05T01:06:18;100770.8242;;;;
44734;BME280;30462;52.446;-1.930;2022-12-05T01:07:17;100772.8828;;;;
44734;BME280;30462;52.446;-1.930;2022-12-05T01:08:18;100776.8438;;;;
44734;BME280;30462;52.446;-1.930;2022-12-05T01:09:18;100776.6641;;;;
44734;BME280;30462;52.446;-1.930;2022-12-05T01:10:18;100776.9648;;;;
44734;BME280;30462;52.446;-1.930;2022-12-05T01:11:19;100777.4219;;;;
44734;BME280;30462;52.446;-1.930;2022-12-05T01:12:18;100778.2109;;;;
44734;BME280;30462;52.446;-1.930;2022-12-05T01:13:18;100782.5547;;;;
44734;BME280;30462;52.446;-1.930;2022-12-05T01:14:19;100782.7031;;;;
44734;BME280;30462;52.446;-1.930;2022-12-05T01:15:19;100786.125;;;;
44734;BME280;30462;52.446;-1.930;2022-12-05T01:16:18;100788.5391;;;;
44734;BME280;30462;52.446;-1.930;2022-12-05T01:17:18;100788.8867;;;;
44734;BME280;30462;52.446;-1.930;2022-12-05T01:18:18;100791.2461;;;;
44734;BME280;30462;52.446;-1.930;2022-12-05T01:19:19;100789.9453;;;;
44734;BME280;30462;52.446;-1.930;2022-12-05T01:20:18;100791.2383;;;;
44734;BME280;30462;52.446;-1.930;2022-12-05T01:21:18;100786.125;;;;
44734;BME280;30462;52.446;-1.930;2022-12-05T01:22:18;100784.3281;;;;
44734;BME280;30462;52.446;-1.930;2022-12-05T01:23:18;100785.7578;;;;
44734;BME280;30462;52.446;-1.930;2022-12-05T01:24:18;100782.625;;;;
44734;BME280;30462;52.446;-1.930;2022-12-05T01:25:18;100781.9258;;;;
44734;BME280;30462;52.446;-1.930;2022-12-05T01:26:18;100782.1211;;;;
44734;BME280;30462;52.446;-1.930;2022-12-05T01:27:17;100781.4688;;;;
44734;BME280;30462;52.446;-1.930;2022-12-05T01:28:18;100777.5703;;;;
44734;BME280;30462;52.446;-1.930;2022-12-05T01:29:18;100776.8125;;;;
44734;BME280;30462;52.446;-1.930;2022-12-05T01:30:18;100776.9531;;;;
44734;BME280;30462;52.446;-1.930;2022-12-05T01:31:20;100778.5469;;;;
44734;BME280;30462;52.446;-1.930;2022-12-05T01:32:18;100777.5273;;;;
44734;BME280;30462;52.446;-1.930;2022-12-05T01:33:18;100780.7969;;;;
44734;BME280;30462;52.446;-1.930;2022-12-05T01:34:18;100779.293;;;;
44734;BME280;30462;52.446;-1.930;2022-12-05T01:35:18;100778.6875;;;;
44734;BME280;30462;52.446;-1.930;2022-12-05T01:36:17;100778.8789;;;;
44734;BME280;30462;52.446;-1.930;2022-12-05T01:37:17;100778.3477;;;;
44734;BME280;30462;52.446;-1.930;2022-12-05T01:38:18;100778.9453;;;;
44734;BME280;30462;52.446;-1.930;2022-12-05T01:39:18;100779.9727;;;;
44734;BME280;30462;52.446;-1.930;2022-12-05T01:40:18;100782.625;;;;
44734;BME280;30462;52.446;-1.930;2022-12-05T01:41:22;100783.0273;;;;
44734;BME280;30462;52.446;-1.930;2022-12-05T01:42:17;100783.7617;;;;
44734;BME280;30462;52.446;-1.930;2022-12-05T01:43:18;100787.8867;;;;
44734;BME280;30462;52.446;-1.930;2022-12-05T01:45:20;100785.6914;;;;
44734;BME280;30462;52.446;-1.930;2022-12-05T01:46:18;100781.9531;;;;
44734;BME280;30462;52.446;-1.930;2022-12-05T01:47:18;100787.3047;;;;
44734;BME280;30462;52.446;-1.930;2022-12-05T01:48:20;100781.8047;;;;
44734;BME280;30462;52.446;-1.930;2022-12-05T01:49:18;100780.0391;;;;
44734;BME280;30462;52.446;-1.930;2022-12-05T01:50:18;100785.5703;;;;
44734;BME280;30462;52.446;-1.930;2022-12-05T01:51:19;100788.3438;;;;
44734;BME280;30462;52.446;-1.930;2022-12-05T01:52:19;100786.8945;;;;
44734;BME280;30462;52.446;-1.930;2022-12-05T01:53:19;100785.9844;;;;
44734;BME280;30462;52.446;-1.930;2022-12-05T01:54:18;100786.4492;;;;
44734;BME280;30462;52.446;-1.930;2022-12-05T01:55:18;100785.7461;;;;
44734;BME280;30462;52.446;-1.930;2022-12-05T01:56:18;100783.5703;;;;
44734;BME280;30462;52.446;-1.930;2022-12-05T01:57:18;100782.7031;;;;
44734;BME280;30462;52.446;-1.930;2022-12-05T01:58:18;100781.7148;;;;
44734;BME280;30462;52.446;-1.930;2022-12-05T01:59:18;100782.0195;;;;
44734;BME280;30462;52.446;-1.930;2022-12-05T02:00:18;100783.5313;;;;
44734;BME280;30462;52.446;-1.930;2022-12-05T02:01:18;100783.4805;;;;
44734;BME280;30462;52.446;-1.930;2022-12-05T02:02:17;100782.8633;;;;
44734;BME280;30462;52.446;-1.930;2022-12-05T02:03:18;100785.1133;;;;
44734;BME280;30462;52.446;-1.930;2022-12-05T02:04:17;100791.0469;;;;
44734;BME280;30462;52.446;-1.930;2022-12-05T02:05:20;100790.1602;;;;
44734;BME280;30462;52.446;-1.930;2022-12-05T02:06:18;100789.5977;;;;
44734;BME280;30462;52.446;-1.930;2022-12-05T02:07:18;100785.8359;;;;
44734;BME280;30462;52.446;-1.930;2022-12-05T02:08:18;100787.8398;;;;
44734;BME280;30462;52.446;-1.930;2022-12-05T02:09:18;100788.2539;;;;
44734;BME280;30462;52.446;-1.930;2022-12-05T02:10:18;100788.0781;;;;
44734;BME280;30462;52.446;-1.930;2022-12-05T02:11:18;100787.6328;;;;
44734;BME280;30462;52.446;-1.930;2022-12-05T02:12:18;100784.5781;;;;
44734;BME280;30462;52.446;-1.930;2022-12-05T02:14:21;100779.2266;;;;
44734;BME280;30462;52.446;-1.930;2022-12-05T02:15:22;100781.2539;;;;
44734;BME280;30462;52.446;-1.930;2022-12-05T02:16:20;100783.7344;;;;
44734;BME280;30462;52.446;-1.930;2022-12-05T02:17:22;100786.2773;;;;
44734;BME280;30462;52.446;-1.930;2022-12-05T02:18:24;100784.8828;;;;
44734;BME280;30462;52.446;-1.930;2022-12-05T02:20:25;100789.2695;;;;
44734;BME280;30462;52.446;-1.930;2022-12-05T02:23:21;100788.2539;;;;
44734;BME280;30462;52.446;-1.930;2022-12-05T02:30:19;100795.5039;;;;
44734;BME280;30462;52.446;-1.930;2022-12-05T02:31:19;100798.1445;;;;
44734;BME280;30462;52.446;-1.930;2022-12-05T02:32:19;100796.9063;;;;
44734;BME280;30462;52.446;-1.930;2022-12-05T02:33:21;100792.2891;;;;
44734;BME280;30462;52.446;-1.930;2022-12-05T02:34:21;100793.9336;;;;
44734;BME280;30462;52.446;-1.930;2022-12-05T02:36:20;100796.6406;;;;
44734;BME280;30462;52.446;-1.930;2022-12-05T02:37:20;100798;;;;
44734;BME280;30462;52.446;-1.930;2022-12-05T02:38:22;100796.4688;;;;
44734;BME280;30462;52.446;-1.930;2022-12-05T02:39:23;100797.0117;;;;
44734;BME280;30462;52.446;-1.930;2022-12-05T02:40:22;100795.8008;;;;
44734;BME280;30462;52.446;-1.930;2022-12-05T02:41:20;100796.3203;;;;
44734;BME280;30462;52.446;-1.930;2022-12-05T02:42:20;100798.3672;;;;
44734;BME280;30462;52.446;-1.930;2022-12-05T02:43:19;100796.3008;;;;
44734;BME280;30462;52.446;-1.930;2022-12-05T02:44:20;100797.2734;;;;
44734;BME280;30462;52.446;-1.930;2022-12-05T02:45:19;100797.6523;;;;
44734;BME280;30462;52.446;-1.930;2022-12-05T02:46:20;100794.6211;;;;
44734;BME280;30462;52.446;-1.930;2022-12-05T02:47:19;100800.25;;;;
44734;BME280;30462;52.446;-1.930;2022-12-05T02:48:18;100801.7578;;;;
44734;BME280;30462;52.446;-1.930;2022-12-05T02:49:18;100801.3164;;;;
44734;BME280;30462;52.446;-1.930;2022-12-05T02:50:19;100802.6133;;;;
44734;BME280;30462;52.446;-1.930;2022-12-05T02:51:19;100799.1797;;;;
44734;BME280;30462;52.446;-1.930;2022-12-05T02:52:18;100798.918;;;;
44734;BME280;30462;52.446;-1.930;2022-12-05T02:53:18;100801.3672;;;;
44734;BME280;30462;52.446;-1.930;2022-12-05T02:54:18;100806.8477;;;;
44734;BME280;30462;52.446;-1.930;2022-12-05T02:55:18;100806.7773;;;;
44734;BME280;30462;52.446;-1.930;2022-12-05T02:56:18;100808.1602;;;;
44734;BME280;30462;52.446;-1.930;2022-12-05T02:57:18;100806.0703;;;;
44734;BME280;30462;52.446;-1.930;2022-12-05T02:58:20;100812.2227;;;;
44734;BME280;30462;52.446;-1.930;2022-12-05T02:59:18;100804.125;;;;
44734;BME280;30462;52.446;-1.930;2022-12-05T03:00:18;100810.3242;;;;
44734;BME280;30462;52.446;-1.930;2022-12-05T03:01:18;100811.5469;;;;
44734;BME280;30462;52.446;-1.930;2022-12-05T03:03:19;100808.2344;;;;
44734;BME280;30462;52.446;-1.930;2022-12-05T03:04:19;100810.1367;;;;
44734;BME280;30462;52.446;-1.930;2022-12-05T03:05:21;100808.75;;;;
44734;BME280;30462;52.446;-1.930;2022-12-05T03:06:19;100808.2969;;;;
44734;BME280;30462;52.446;-1.930;2022-12-05T03:07:18;100809.9961;;;;
44734;BME280;30462;52.446;-1.930;2022-12-05T03:08:19;100808.8711;;;;
44734;BME280;30462;52.446;-1.930;2022-12-05T03:09:18;100811.1055;;;;
44734;BME280;30462;52.446;-1.930;2022-12-05T03:10:19;100809.5977;;;;
44734;BME280;30462;52.446;-1.930;2022-12-05T03:11:18;100807.9063;;;;
44734;BME280;30462;52.446;-1.930;2022-12-05T03:12:19;100808.0156;;;;
44734;BME280;30462;52.446;-1.930;2022-12-05T03:13:19;100811.8086;;;;
44734;BME280;30462;52.446;-1.930;2022-12-05T03:14:18;100810.9063;;;;
44734;BME280;30462;52.446;-1.930;2022-12-05T03:15:22;100812.7617;;;;
44734;BME280;30462;52.446;-1.930;2022-12-05T03:16:23;100811.2344;;;;
44734;BME280;30462;52.446;-1.930;2022-12-05T03:17:19;100811.8594;;;;
44734;BME280;30462;52.446;-1.930;2022-12-05T03:18:20;100813.8086;;;;
44734;BME280;30462;52.446;-1.930;2022-12-05T03:19:20;100814.1797;;;;
44734;BME280;30462;52.446;-1.930;2022-12-05T03:20:19;100813.3906;;;;
44734;BME280;30462;52.446;-1.930;2022-12-05T03:21:21;100815.5664;;;;
44734;BME280;30462;52.446;-1.930;2022-12-05T03:22:19;100816.5547;;;;
44734;BME280;30462;52.446;-1.930;2022-12-05T03:23:19;100813.9688;;;;
44734;BME280;30462;52.446;-1.930;2022-12-05T03:24:18;100817.5547;;;;
44734;BME280;30462;52.446;-1.930;2022-12-05T03:25:18;100820.1719;;;;
44734;BME280;30462;52.446;-1.930;2022-12-05T03:26:26;100820.8203;;;;
44734;BME280;30462;52.446;-1.930;2022-12-05T03:27:20;100819.4648;;;;
44734;BME280;30462;52.446;-1.930;2022-12-05T03:28:19;100822.8047;;;;
44734;BME280;30462;52.446;-1.930;2022-12-05T03:29:21;100818.8164;;;;
44734;BME280;30462;52.446;-1.930;2022-12-05T03:30:19;100826.4336;;;;
44734;BME280;30462;52.446;-1.930;2022-12-05T03:31:18;100823.3906;;;;
44734;BME280;30462;52.446;-1.930;2022-12-05T03:32:19;100826.4141;;;;
44734;BME280;30462;52.446;-1.930;2022-12-05T03:33:19;100824.8828;;;;
44734;BME280;30462;52.446;-1.930;2022-12-05T03:34:19;100825.4492;;;;
44734;BME280;30462;52.446;-1.930;2022-12-05T03:35:21;100821.8281;;;;
44734;BME280;30462;52.446;-1.930;2022-12-05T03:36:19;100826.0195;;;;
44734;BME280;30462;52.446;-1.930;2022-12-05T03:37:21;100824.1602;;;;
44734;BME280;30462;52.446;-1.930;2022-12-05T03:38:19;100829.8594;;;;
44734;BME280;30462;52.446;-1.930;2022-12-05T03:39:21;100825.3711;;;;
44734;BME280;30462;52.446;-1.930;2022-12-05T03:40:25;100825.3711;;;;
44734;BME280;30462;52.446;-1.930;2022-12-05T03:41:21;100827.6563;;;;
44734;BME280;30462;52.446;-1.930;2022-12-05T03:42:18;100826.0117;;;;
44734;BME280;30462;52.446;-1.930;2022-12-05T03:43:19;100825.5664;;;;
44734;BME280;30462;52.446;-1.930;2022-12-05T03:44:22;100826.0352;;;;
44734;BME280;30462;52.446;-1.930;2022-12-05T03:45:19;100828.6523;;;;
44734;BME280;30462;52.446;-1.930;2022-12-05T03:46:21;100824.3633;;;;
44734;BME280;30462;52.446;-1.930;2022-12-05T03:47:19;100821.6367;;;;
44734;BME280;30462;52.446;-1.930;2022-12-05T03:48:20;100824.9609;;;;
44734;BME280;30462;52.446;-1.930;2022-12-05T03:49:21;100826.1484;;;;
44734;BME280;30462;52.446;-1.930;2022-12-05T03:50:19;100832.207;;;;
44734;BME280;30462;52.446;-1.930;2022-12-05T03:51:18;100830.3438;;;;
44734;BME280;30462;52.446;-1.930;2022-12-05T03:52:19;100826.5859;;;;
44734;BME280;30462;52.446;-1.930;2022-12-05T03:53:21;100828.2344;;;;
44734;BME280;30462;52.446;-1.930;2022-12-05T03:54:20;100829.4766;;;;
44734;BME280;30462;52.446;-1.930;2022-12-05T03:55:18;100828.5586;;;;
44734;BME280;30462;52.446;-1.930;2022-12-05T03:56:18;100832.6836;;;;
44734;BME280;30462;52.446;-1.930;2022-12-05T03:57:20;100829.4453;;;;
44734;BME280;30462;52.446;-1.930;2022-12-05T03:58:19;100831.7617;;;;
44734;BME280;30462;52.446;-1.930;2022-12-05T03:59:19;100834.5586;;;;
44734;BME280;30462;52.446;-1.930;2022-12-05T04:00:19;100833.3789;;;;
44734;BME280;30462;52.446;-1.930;2022-12-05T04:01:18;100832.7695;;;;
44734;BME280;30462;52.446;-1.930;2022-12-05T04:02:20;100833.6875;;;;
44734;BME280;30462;52.446;-1.930;2022-12-05T04:03:19;100836.9961;;;;
44734;BME280;30462;52.446;-1.930;2022-12-05T04:04:20;100836.5391;;;;
44734;BME280;30462;52.446;-1.930;2022-12-05T04:05:19;100836.8438;;;;
44734;BME280;30462;52.446;-1.930;2022-12-05T04:06:20;100838.4414;;;;
44734;BME280;30462;52.446;-1.930;2022-12-05T04:07:18;100837.3711;;;;
44734;BME280;30462;52.446;-1.930;2022-12-05T04:08:19;100834.0469;;;;
44734;BME280;30462;52.446;-1.930;2022-12-05T04:09:20;100833.7227;;;;
44734;BME280;30462;52.446;-1.930;2022-12-05T04:10:19;100835.0078;;;;
44734;BME280;30462;52.446;-1.930;2022-12-05T04:11:19;100835.1211;;;;
44734;BME280;30462;52.446;-1.930;2022-12-05T04:12:19;100839.2773;;;;
44734;BME280;30462;52.446;-1.930;2022-12-05T04:13:19;100839.418;;;;
44734;BME280;30462;52.446;-1.930;2022-12-05T04:14:18;100836.5391;;;;
44734;BME280;30462;52.446;-1.930;2022-12-05T04:15:19;100836.1563;;;;
44734;BME280;30462;52.446;-1.930;2022-12-05T04:16:24;100836.1563;;;;
44734;BME280;30462;52.446;-1.930;2022-12-05T04:17:20;100836.6445;;;;
44734;BME280;30462;52.446;-1.930;2022-12-05T04:18:18;100837.5039;;;;
44734;BME280;30462;52.446;-1.930;2022-12-05T04:19:18;100835.4766;;;;
44734;BME280;30462;52.446;-1.930;2022-12-05T04:20:20;100839.6172;;;;
44734;BME280;30462;52.446;-1.930;2022-12-05T04:21:17;100842.1719;;;;
44734;BME280;30462;52.446;-1.930;2022-12-05T04:22:18;100837.7305;;;;
44734;BME280;30462;52.446;-1.930;2022-12-05T04:23:17;100839.6758;;;;
44734;BME280;30462;52.446;-1.930;2022-12-05T04:24:22;100844.1641;;;;
44734;BME280;30462;52.446;-1.930;2022-12-05T04:25:18;100842.5078;;;;
44734;BME280;30462;52.446;-1.930;2022-12-05T04:26:22;100842.4492;;;;
44734;BME280;30462;52.446;-1.930;2022-12-05T04:27:20;100843.8555;;;;
44734;BME280;30462;52.446;-1.930;2022-12-05T04:28:26;100841.8789;;;;
44734;BME280;30462;52.446;-1.930;2022-12-05T04:29:20;100845.7109;;;;
44734;BME280;30462;52.446;-1.930;2022-12-05T04:30:19;100842.2773;;;;
44734;BME280;30462;52.446;-1.930;2022-12-05T04:31:18;100842.2305;;;;
44734;BME280;30462;52.446;-1.930;2022-12-05T04:32:18;100845.4609;;;;
44734;BME280;30462;52.446;-1.930;2022-12-05T04:33:19;100845.7305;;;;
44734;BME280;30462;52.446;-1.930;2022-12-05T04:34:18;100848.668;;;;
44734;BME280;30462;52.446;-1.930;2022-12-05T04:35:18;100849.5117;;;;
44734;BME280;30462;52.446;-1.930;2022-12-05T04:36:21;100847.3711;;;;
44734;BME280;30462;52.446;-1.930;2022-12-05T04:37:18;100846.7617;;;;
44734;BME280;30462;52.446;-1.930;2022-12-05T04:38:19;100849.2617;;;;
44734;BME280;30462;52.446;-1.930;2022-12-05T04:39:19;100848.1367;;;;
44734;BME280;30462;52.446;-1.930;2022-12-05T04:40:18;100847.4453;;;;
44734;BME280;30462;52.446;-1.930;2022-12-05T04:41:20;100851.3125;;;;
44734;BME280;30462;52.446;-1.930;2022-12-05T04:42:20;100852.4727;;;;
44734;BME280;30462;52.446;-1.930;2022-12-05T04:43:18;100851.5352;;;;
44734;BME280;30462;52.446;-1.930;2022-12-05T04:44:20;100853.1602;;;;
44734;BME280;30462;52.446;-1.930;2022-12-05T04:45:18;100854.0938;;;;
44734;BME280;30462;52.446;-1.930;2022-12-05T04:46:18;100858.9141;;;;
44734;BME280;30462;52.446;-1.930;2022-12-05T04:47:18;100860.2969;;;;
44734;BME280;30462;52.446;-1.930;2022-12-05T04:48:18;100860.7539;;;;
44734;BME280;30462;52.446;-1.930;2022-12-05T04:49:20;100861.7422;;;;
44734;BME280;30462;52.446;-1.930;2022-12-05T04:50:18;100862.8672;;;;
44734;BME280;30462;52.446;-1.930;2022-12-05T04:51:19;100865.6797;;;;
44734;BME280;30462;52.446;-1.930;2022-12-05T04:52:18;100864.4648;;;;
44734;BME280;30462;52.446;-1.930;2022-12-05T04:53:18;100865.8008;;;;
44734;BME280;30462;52.446;-1.930;2022-12-05T04:54:20;100865.5742;;;;
44734;BME280;30462;52.446;-1.930;2022-12-05T04:55:19;100865.6484;;;;
44734;BME280;30462;52.446;-1.930;2022-12-05T04:56:18;100865.5625;;;;
44734;BME280;30462;52.446;-1.930;2022-12-05T04:57:18;100865.2305;;;;
44734;BME280;30462;52.446;-1.930;2022-12-05T04:58:19;100864.0313;;;;
44734;BME280;30462;52.446;-1.930;2022-12-05T04:59:18;100865.6992;;;;
44734;BME280;30462;52.446;-1.930;2022-12-05T05:00:18;100865.7305;;;;
44734;BME280;30462;52.446;-1.930;2022-12-05T05:01:18;100864.7227;;;;
44734;BME280;30462;52.446;-1.930;2022-12-05T05:02:20;100863.543;;;;
44734;BME280;30462;52.446;-1.930;2022-12-05T05:03:19;100864.5586;;;;
44734;BME280;30462;52.446;-1.930;2022-12-05T05:04:19;100865.0078;;;;
44734;BME280;30462;52.446;-1.930;2022-12-05T05:05:18;100866.4258;;;;
44734;BME280;30462;52.446;-1.930;2022-12-05T05:06:18;100864.7422;;;;
44734;BME280;30462;52.446;-1.930;2022-12-05T05:07:18;100865.9258;;;;
44734;BME280;30462;52.446;-1.930;2022-12-05T05:08:19;100868.0352;;;;
44734;BME280;30462;52.446;-1.930;2022-12-05T05:09:18;100872.6602;;;;
44734;BME280;30462;52.446;-1.930;2022-12-05T05:10:20;100865.7734;;;;
44734;BME280;30462;52.446;-1.930;2022-12-05T05:11:18;100869.168;;;;
44734;BME280;30462;52.446;-1.930;2022-12-05T05:12:18;100869.918;;;;
44734;BME280;30462;52.446;-1.930;2022-12-05T05:13:17;100869.7227;;;;
44734;BME280;30462;52.446;-1.930;2022-12-05T05:14:18;100870.4805;;;;
44734;BME280;30462;52.446;-1.930;2022-12-05T05:15:18;100872.9219;;;;
44734;BME280;30462;52.446;-1.930;2022-12-05T05:16:19;100870.9688;;;;
44734;BME280;30462;52.446;-1.930;2022-12-05T05:17:18;100870.4609;;;;
44734;BME280;30462;52.446;-1.930;2022-12-05T05:18:18;100873.7852;;;;
44734;BME280;30462;52.446;-1.930;2022-12-05T05:19:17;100867.9492;;;;
44734;BME280;30462;52.446;-1.930;2022-12-05T05:20:20;100872.707;;;;
44734;BME280;30462;52.446;-1.930;2022-12-05T05:21:19;100868.6641;;;;
44734;BME280;30462;52.446;-1.930;2022-12-05T05:22:18;100870.3203;;;;
44734;BME280;30462;52.446;-1.930;2022-12-05T05:23:18;100868.0547;;;;
44734;BME280;30462;52.446;-1.930;2022-12-05T05:24:18;100868.9531;;;;
44734;BME280;30462;52.446;-1.930;2022-12-05T05:25:19;100871.6289;;;;
44734;BME280;30462;52.446;-1.930;2022-12-05T05:26:18;100873.1133;;;;
44734;BME280;30462;52.446;-1.930;2022-12-05T05:27:18;100871.5781;;;;
44734;BME280;30462;52.446;-1.930;2022-12-05T05:28:18;100869.9063;;;;
44734;BME280;30462;52.446;-1.930;2022-12-05T05:29:18;100870.6875;;;;
44734;BME280;30462;52.446;-1.930;2022-12-05T05:30:18;100870.25;;;;
44734;BME280;30462;52.446;-1.930;2022-12-05T05:31:19;100868.2344;;;;
44734;BME280;30462;52.446;-1.930;2022-12-05T05:32:18;100869.2344;;;;
44734;BME280;30462;52.446;-1.930;2022-12-05T05:33:18;100869.6953;;;;
44734;BME280;30462;52.446;-1.930;2022-12-05T05:34:18;100872.7266;;;;
44734;BME280;30462;52.446;-1.930;2022-12-05T05:35:18;100868.6641;;;;
44734;BME280;30462;52.446;-1.930;2022-12-05T05:36:19;100872.8477;;;;
44734;BME280;30462;52.446;-1.930;2022-12-05T05:37:18;100873.0781;;;;
44734;BME280;30462;52.446;-1.930;2022-12-05T05:38:18;100874.2148;;;;
44734;BME280;30462;52.446;-1.930;2022-12-05T05:39:18;100875.8945;;;;
44734;BME280;30462;52.446;-1.930;2022-12-05T05:40:18;100875.375;;;;
44734;BME280;30462;52.446;-1.930;2022-12-05T05:41:19;100872.5664;;;;
44734;BME280;30462;52.446;-1.930;2022-12-05T05:42:18;100878.7891;;;;
44734;BME280;30462;52.446;-1.930;2022-12-05T05:43:18;100872.1016;;;;
44734;BME280;30462;52.446;-1.930;2022-12-05T05:44:18;100880.4219;;;;
44734;BME280;30462;52.446;-1.930;2022-12-05T05:45:18;100880.457;;;;
44734;BME280;30462;52.446;-1.930;2022-12-05T05:46:19;100882.125;;;;
44734;BME280;30462;52.446;-1.930;2022-12-05T05:47:18;100881.207;;;;
44734;BME280;30462;52.446;-1.930;2022-12-05T05:48:18;100877.1641;;;;
44734;BME280;30462;52.446;-1.930;2022-12-05T05:49:18;100882.5938;;;;
44734;BME280;30462;52.446;-1.930;2022-12-05T05:50:18;100881.3242;;;;
44734;BME280;30462;52.446;-1.930;2022-12-05T05:51:18;100885.2148;;;;
44734;BME280;30462;52.446;-1.930;2022-12-05T05:52:18;100879.8945;;;;
44734;BME280;30462;52.446;-1.930;2022-12-05T05:53:18;100886.332;;;;
44734;BME280;30462;52.446;-1.930;2022-12-05T05:54:18;100883.6641;;;;
44734;BME280;30462;52.446;-1.930;2022-12-05T05:55:18;100884.2266;;;;
44734;BME280;30462;52.446;-1.930;2022-12-05T05:56:18;100888.3477;;;;
44734;BME280;30462;52.446;-1.930;2022-12-05T05:57:17;100887.4453;;;;
44734;BME280;30462;52.446;-1.930;2022-12-05T05:58:18;100892.9414;;;;